Delta Virtual Airport Information Service

Windsor Locks Bradley International Airport

ICAO: KBDL Country: United States
Latitude: 41.9389 Longitude: -72.6832
Latest Arrival : UAL2196 (B) (KIAD-KBDL) Latest Departure : AAL1863 (1C) (KBDL-KPHL)


WX CaptureLIVE
Data provided by noaa.gov | Fetched at 08:23:23

METAR : KBDL 061358Z 29013G18KT 10SM SCT043 SCT250 M03/M14 A3003

TAF : KBDL 061139Z 0612/0718 30010KT P6SM FEW060 FM061500 31012G20KT P6SM SKC FM062200 31008KT P6SM SCT070 FM070300 30004KT P6SM FEW250


Runway Data for KBDL
Data provided by openaviationdata.com

Runway ID Mag Var Hdg Length Elevation Surface ILS Freq ILS Id ILS Slope
1 -14 13° 5146 ft 173 ft Asphalt -- -- --
6 -14 58° 9505 ft 173 ft Asphalt 111.1 IBDL 3
15 -14 148° 6844 ft 173 ft Asphalt -- -- --
19 -14 193° 5146 ft 173 ft Asphalt -- -- --
24 -14 238° 9505 ft 173 ft Asphalt 111.1 IMYQ 3
33 -14 328° 6844 ft 173 ft Asphalt 108.55 IIKX 3

Windsor Locks Bradley International Airport, United States
Use only for reference purposes



Not for navigational purposes.